Time;durP1;ratioP1;P1;durP2;ratioP2;P2;SDS_P1;SDS_P2;PMS_P1;PMS_P2;Temp;Humidity;BMP_temperature;BMP_pressure;BME280_temperature;BME280_humidity;BME280_pressure;Samples;Min_cycle;Max_cycle;Signal;HPM_P1;HPM_P2
2023/01/20 00:01:37;;;;;;;6.50;3.22;;;8.30;99.90;;;;;;5053932;28;20515;-73
2023/01/20 00:04:41;;;;;;;6.57;3.30;;;7.20;99.80;;;;;;5053545;28;20062;-72
2023/01/20 00:07:44;;;;;;;6.88;2.53;;;8.20;99.90;;;;;;5053943;28;20037;-74
2023/01/20 00:10:48;;;;;;;5.55;2.75;;;7.00;99.90;;;;;;5053641;28;20420;-73
2023/01/20 00:13:56;;;;;;;6.00;2.50;;;7.70;99.90;;;;;;5053290;28;20052;-73
2023/01/20 00:17:01;;;;;;;7.93;2.42;;;8.50;99.90;;;;;;5053115;28;20033;-73
2023/01/20 00:20:05;;;;;;;7.90;2.40;;;7.90;99.90;;;;;;5052664;28;20049;-74
2023/01/20 00:23:09;;;;;;;6.55;2.00;;;8.50;99.90;;;;;;5052610;28;20148;-73
2023/01/20 00:26:15;;;;;;;6.82;2.53;;;7.90;99.90;;;;;;5052576;28;20037;-73
2023/01/20 00:29:20;;;;;;;6.43;3.25;;;;;;;;;;5052828;28;20380;-74
2023/01/20 00:32:25;;;;;;;6.47;3.05;;;;;;;;;;5052538;28;20402;-74
2023/01/20 00:35:29;;;;;;;4.78;2.95;;;;;;;;;;5052519;28;20504;-72
2023/01/20 00:38:33;;;;;;;7.68;2.80;;;7.80;99.90;;;;;;5052000;28;20037;-74
2023/01/20 00:41:37;;;;;;;6.70;2.85;;;;;;;;;;5052599;28;20028;-74
2023/01/20 00:44:41;;;;;;;5.25;2.30;;;6.10;99.90;;;;;;5052393;28;20040;-74
2023/01/20 00:47:46;;;;;;;7.72;2.00;;;;;;;;;;5052420;28;20048;-73
2023/01/20 00:50:50;;;;;;;3.28;1.58;;;;;;;;;;5051617;28;20037;-74
2023/01/20 00:53:54;;;;;;;5.10;2.42;;;8.10;99.90;;;;;;5052424;28;20049;-74
2023/01/20 00:56:58;;;;;;;7.45;1.88;;;8.20;99.90;;;;;;5052384;28;20458;-73
2023/01/20 01:00:03;;;;;;;5.53;1.77;;;;;;;;;;5052295;28;20041;-74
2023/01/20 01:03:09;;;;;;;3.42;1.58;;;7.60;99.90;;;;;;5051905;28;20370;-73
2023/01/20 01:06:15;;;;;;;3.63;1.50;;;8.50;99.90;;;;;;5051854;28;20044;-74
2023/01/20 01:09:20;;;;;;;2.95;1.70;;;7.60;99.90;;;;;;5051528;28;20052;-73
2023/01/20 01:12:24;;;;;;;3.38;2.20;;;8.60;99.90;;;;;;5051876;28;20517;-74
2023/01/20 01:15:29;;;;;;;6.97;2.22;;;;;;;;;;5051983;28;20055;-74
2023/01/20 01:18:33;;;;;;;7.30;3.40;;;;;;;;;;5051879;28;20045;-74
2023/01/20 01:21:37;;;;;;;10.25;4.20;;;;;;;;;;5051904;28;20041;-72
2023/01/20 01:24:43;;;;;;;5.43;2.83;;;7.10;99.90;;;;;;5051509;28;20051;-73
2023/01/20 01:27:48;;;;;;;7.85;2.50;;;;;;;;;;5051506;28;20044;-73
2023/01/20 01:30:52;;;;;;;4.97;2.53;;;;;;;;;;5051890;28;20489;-74
2023/01/20 01:33:56;;;;;;;4.10;2.88;;;;;;;;;;5051296;28;20049;-74
2023/01/20 01:37:01;;;;;;;5.65;2.72;;;;;;;;;;5051372;28;20028;-73
2023/01/20 01:40:05;;;;;;;3.92;2.83;;;;;;;;;;5051526;28;20040;-74
2023/01/20 01:43:17;;;;;;;6.15;3.00;;;;;;;;;;5051502;28;20481;-73
2023/01/20 01:46:22;;;;;;;3.88;2.17;;;;;;;;;;5051376;28;20041;-73
2023/01/20 01:49:28;;;;;;;4.93;1.60;;;;;;;;;;5051466;28;20033;-74
2023/01/20 01:52:32;;;;;;;3.05;1.60;;;;;;;;;;5051140;28;20048;-73
2023/01/20 01:55:38;;;;;;;2.28;1.60;;;;;;;;;;5051372;28;20041;-73
2023/01/20 01:58:47;;;;;;;9.82;2.15;;;5.80;99.90;;;;;;5051100;28;20037;-73
2023/01/20 02:01:52;;;;;;;4.50;2.08;;;;;;;;;;5051022;28;20046;-73
2023/01/20 02:04:56;;;;;;;3.22;1.50;;;;;;;;;;5051232;28;20033;-73
2023/01/20 02:08:03;;;;;;;3.20;1.67;;;;;;;;;;5051072;28;20037;-74
2023/01/20 02:11:08;;;;;;;3.92;1.42;;;;;;;;;;5050770;28;20045;-72
2023/01/20 02:14:12;;;;;;;3.15;1.67;;;;;;;;;;5049957;28;20489;-73
2023/01/20 02:17:28;;;;;;;2.00;1.35;;;6.80;99.90;;;;;;5051382;28;20033;-72
2023/01/20 02:20:52;;;;;;;2.42;1.35;;;;;;;;;;5050986;28;20399;-73
2023/01/20 02:24:22;;;;;;;3.95;1.50;;;;;;;;;;5049871;28;20033;-72
2023/01/20 02:27:47;;;;;;;4.32;1.95;;;6.70;99.90;;;;;;5048282;28;20033;-74
2023/01/20 02:31:11;;;;;;;5.70;2.00;;;7.70;99.90;;;;;;5050716;28;20045;-75
2023/01/20 02:34:20;;;;;;;3.20;1.80;;;;;;;;;;5050601;28;20052;-73
2023/01/20 02:37:30;;;;;;;4.22;1.52;;;7.10;99.90;;;;;;5050916;28;20041;-74
2023/01/20 02:41:05;;;;;;;4.68;1.80;;;5.50;99.90;;;;;;5050513;28;20045;-73
2023/01/20 02:44:17;;;;;;;1.90;1.60;;;;;;;;;;5050666;28;20056;-74
2023/01/20 02:47:22;;;;;;;3.33;1.50;;;;;;;;;;5050556;28;20041;-74
2023/01/20 02:50:46;;;;;;;3.17;1.38;;;;;;;;;;5050759;28;20045;-74
2023/01/20 02:53:54;;;;;;;3.65;1.55;;;6.50;99.90;;;;;;5050215;28;20045;-73
2023/01/20 02:57:01;;;;;;;3.33;1.60;;;4.70;99.90;;;;;;5050408;28;20437;-73
2023/01/20 03:00:20;;;;;;;2.83;1.52;;;4.90;99.90;;;;;;5049419;28;20037;-74
2023/01/20 03:03:27;;;;;;;4.10;2.17;;;;;;;;;;5050374;28;20043;-73
2023/01/20 03:06:36;;;;;;;2.50;1.77;;;5.90;99.90;;;;;;5049670;28;20045;-73
2023/01/20 03:09:44;;;;;;;2.75;1.98;;;;;;;;;;5050026;28;20488;-74
2023/01/20 03:12:51;;;;;;;6.45;2.40;;;;;;;;;;5050240;28;20053;-72
2023/01/20 03:16:06;;;;;;;3.28;1.63;;;5.70;99.90;;;;;;5050191;28;20421;-73
2023/01/20 03:19:10;;;;;;;2.72;1.50;;;;;;;;;;5050130;28;20033;-73
2023/01/20 03:22:15;;;;;;;3.35;1.80;;;;;;;;;;5051095;28;20037;-71
2023/01/20 03:25:20;;;;;;;4.72;2.00;;;;;;;;;;5054437;28;20041;-73
2023/01/20 03:28:24;;;;;;;4.20;1.80;;;;;;;;;;5054016;28;20036;-73
2023/01/20 03:31:30;;;;;;;4.00;2.70;;;;;;;;;;5054087;28;20033;-72
2023/01/20 03:34:35;;;;;;;4.32;2.00;;;;;;;;;;5053665;28;20045;-73
2023/01/20 03:37:40;;;;;;;5.93;1.92;;;;;;;;;;5052865;28;20401;-73
2023/01/20 03:41:03;;;;;;;3.97;1.83;;;5.90;99.90;;;;;;5054200;28;20049;-72
2023/01/20 03:44:13;;;;;;;3.17;2.08;;;;;;;;;;5054013;28;20036;-73
2023/01/20 03:47:50;;;;;;;3.13;2.10;;;6.20;99.90;;;;;;5053609;28;20041;-73
2023/01/20 03:50:58;;;;;;;4.55;1.90;;;6.40;99.90;;;;;;5053699;28;20044;-73
2023/01/20 03:54:05;;;;;;;2.55;1.42;;;;;;;;;;5052669;28;20049;-73
2023/01/20 03:57:21;;;;;;;2.15;1.58;;;;;;;;;;5053378;28;20032;-73
2023/01/20 04:00:27;;;;;;;2.63;1.75;;;;;;;;;;5053299;28;20037;-73
2023/01/20 04:03:36;;;;;;;5.28;2.40;;;5.90;99.90;;;;;;5052843;28;20037;-72
2023/01/20 04:06:42;;;;;;;5.45;2.00;;;;;;;;;;5054122;28;20056;-72
2023/01/20 04:09:50;;;;;;;2.78;1.73;;;;;;;;;;5052934;28;20049;-73
2023/01/20 04:12:54;;;;;;;2.60;1.98;;;;;;;;;;5052903;28;20033;-73
2023/01/20 04:15:59;;;;;;;3.45;1.80;;;;;;;;;;5052532;28;20036;-73
2023/01/20 04:19:03;;;;;;;4.10;2.42;;;;;;;;;;5052407;28;20045;-73
2023/01/20 04:22:17;;;;;;;2.83;2.00;;;;;;;;;;5051744;28;20489;-73
2023/01/20 04:25:21;;;;;;;4.07;2.15;;;;;;;;;;5052515;28;20045;-73
2023/01/20 04:28:25;;;;;;;3.80;2.25;;;;;;;;;;5052424;28;20033;-73
2023/01/20 04:31:29;;;;;;;4.80;2.13;;;;;;;;;;5052311;28;20037;-73
2023/01/20 04:34:34;;;;;;;6.50;2.65;;;;;;;;;;5051870;28;20159;-73
2023/01/20 04:37:38;;;;;;;3.75;2.55;;;;;;;;;;5052532;28;20037;-73
2023/01/20 04:40:42;;;;;;;4.60;2.60;;;;;;;;;;5051986;28;20057;-73
2023/01/20 04:43:47;;;;;;;6.10;2.90;;;;;;;;;;5052053;28;20040;-72
2023/01/20 04:46:55;;;;;;;4.43;2.78;;;;;;;;;;5052189;28;20041;-72
2023/01/20 04:49:59;;;;;;;3.88;3.15;;;;;;;;;;5052312;28;20033;-73
2023/01/20 04:53:04;;;;;;;8.02;3.08;;;;;;;;;;5051872;28;20053;-73
2023/01/20 04:56:12;;;;;;;3.33;2.83;;;;;;;;;;5051921;28;20045;-73
2023/01/20 04:59:16;;;;;;;4.30;2.85;;;;;;;;;;5051860;28;20032;-73
2023/01/20 05:02:21;;;;;;;5.32;2.97;;;;;;;;;;5051887;28;20037;-73
2023/01/20 05:05:25;;;;;;;6.32;3.20;;;;;;;;;;5051697;28;20040;-73
2023/01/20 05:08:29;;;;;;;3.70;2.83;;;;;;;;;;5051568;28;20037;-72
2023/01/20 05:11:34;;;;;;;5.65;2.65;;;;;;;;;;5051341;28;20044;-73
2023/01/20 05:14:38;;;;;;;5.13;3.28;;;;;;;;;;5051292;28;20041;-73
2023/01/20 05:17:43;;;;;;;6.07;3.58;;;;;;;;;;5051302;28;20366;-72
2023/01/20 05:20:48;;;;;;;5.10;3.15;;;;;;;;;;5051616;28;20477;-72
2023/01/20 05:23:56;;;;;;;6.20;2.90;;;;;;;;;;5051249;28;20291;-73
2023/01/20 05:27:00;;;;;;;4.95;3.90;;;;;;;;;;5051621;28;20040;-73
2023/01/20 05:30:05;;;;;;;5.38;3.67;;;5.30;99.90;;;;;;5051441;28;20045;-73
2023/01/20 05:33:10;;;;;;;6.65;3.85;;;;;;;;;;5051101;28;20048;-72
2023/01/20 05:36:15;;;;;;;9.55;5.45;;;;;;;;;;5051028;28;20036;-73
2023/01/20 05:39:20;;;;;;;9.07;6.03;;;;;;;;;;5050840;28;20045;-73
2023/01/20 05:42:24;;;;;;;13.80;5.93;;;;;;;;;;5050892;28;20033;-72
2023/01/20 05:45:31;;;;;;;8.35;5.07;;;;;;;;;;5049336;28;20048;-73
2023/01/20 05:48:35;;;;;;;7.18;3.92;;;;;;;;;;5050009;28;20485;-73
2023/01/20 05:51:39;;;;;;;5.15;3.50;;;;;;;;;;5050959;28;20048;-72
2023/01/20 05:54:44;;;;;;;6.85;3.85;;;;;;;;;;5050775;28;20053;-73
2023/01/20 05:57:51;;;;;;;6.28;4.05;;;;;;;;;;5051018;28;20037;-72
2023/01/20 06:01:03;;;;;;;7.07;3.42;;;;;;;;;;5050275;28;20053;-73
2023/01/20 06:04:07;;;;;;;6.22;3.00;;;;;;;;;;5051064;28;20029;-72
2023/01/20 06:07:11;;;;;;;3.80;2.97;;;;;;;;;;5051290;28;20292;-73
2023/01/20 06:10:16;;;;;;;6.20;3.08;;;;;;;;;;5050832;28;20413;-73
2023/01/20 06:13:20;;;;;;;6.20;3.20;;;;;;;;;;5050833;28;20044;-73
2023/01/20 06:16:24;;;;;;;7.07;3.70;;;;;;;;;;5051197;28;20033;-73
2023/01/20 06:19:28;;;;;;;6.75;3.55;;;;;;;;;;5051059;28;20032;-72
2023/01/20 06:22:33;;;;;;;8.18;3.78;;;;;;;;;;5050959;28;20033;-73
2023/01/20 06:25:37;;;;;;;9.93;3.70;;;;;;;;;;5050802;28;20378;-72
2023/01/20 06:28:41;;;;;;;7.25;3.83;;;;;;;;;;5050935;28;20037;-72
2023/01/20 06:31:46;;;;;;;7.10;3.75;;;;;;;;;;5050801;28;20041;-73
2023/01/20 06:34:53;;;;;;;18.77;6.57;;;;;;;;;;5050416;28;20044;-78
2023/01/20 06:37:58;;;;;;;8.95;5.50;;;;;;;;;;5050866;28;20523;-75
2023/01/20 06:41:03;;;;;;;13.38;7.10;;;;;;;;;;5048358;28;20048;-75
2023/01/20 06:44:07;;;;;;;10.43;5.18;;;;;;;;;;5050786;28;20052;-75
2023/01/20 06:47:11;;;;;;;10.20;4.75;;;;;;;;;;5050077;28;20511;-75
2023/01/20 06:50:16;;;;;;;8.02;4.32;;;;;;;;;;5050829;28;20389;-74
2023/01/20 06:53:21;;;;;;;10.20;4.85;;;;;;;;;;5050425;28;20045;-72
2023/01/20 06:56:25;;;;;;;9.50;5.75;;;;;;;;;;5051602;28;20040;-72
2023/01/20 06:59:29;;;;;;;9.55;6.10;;;;;;;;;;5053082;28;20048;-72
2023/01/20 07:02:33;;;;;;;8.50;5.00;;;;;;;;;;5053773;28;20041;-72
2023/01/20 07:05:38;;;;;;;6.93;4.97;;;;;;;;;;5053674;28;20033;-72
2023/01/20 07:08:43;;;;;;;9.48;4.82;;;;;;;;;;5054256;28;20381;-72
2023/01/20 07:11:48;;;;;;;9.35;5.57;;;;;;;;;;5053919;28;20029;-73
2023/01/20 07:14:52;;;;;;;12.85;7.13;;;;;;;;;;5054209;28;20405;-73
2023/01/20 07:17:57;;;;;;;15.27;9.15;;;6.40;99.90;;;;;;5054138;28;20040;-72
2023/01/20 07:21:02;;;;;;;14.38;9.00;;;;;;;;;;5054362;28;20048;-70
2023/01/20 07:24:06;;;;;;;8.90;3.65;;;;;;;;;;5054063;28;20503;-70
2023/01/20 07:27:11;;;;;;;9.35;3.92;;;;;;;;;;5053836;28;20045;-71
2023/01/20 07:30:15;;;;;;;7.78;4.05;;;;;;;;;;5053748;28;20041;-70
2023/01/20 07:33:19;;;;;;;8.18;4.72;;;;;;;;;;5053428;28;20045;-68
2023/01/20 07:36:27;;;;;;;14.57;6.32;;;;;;;;;;5053756;28;20033;-74
2023/01/20 07:39:31;;;;;;;9.90;6.07;;;;;;;;;;5053713;28;20044;-71
2023/01/20 07:42:39;;;;;;;11.82;6.72;;;;;;;;;;5052121;28;20037;-72
2023/01/20 07:45:43;;;;;;;10.70;7.35;;;;;;;;;;5053308;28;20116;-75
2023/01/20 07:48:48;;;;;;;12.18;7.22;;;;;;;;;;5053639;28;20055;-75
2023/01/20 07:51:52;;;;;;;13.80;7.00;;;;;;;;;;5053858;28;20057;-75
2023/01/20 07:54:56;;;;;;;11.75;7.32;;;;;;;;;;5053826;28;20048;-71
2023/01/20 07:58:01;;;;;;;21.00;7.90;;;;;;;;;;5053655;28;20587;-69
2023/01/20 08:01:09;;;;;;;15.82;8.02;;;;;;;;;;5054026;28;20504;-69
2023/01/20 08:04:13;;;;;;;15.82;7.82;;;;;;;;;;5054361;28;20044;-70
2023/01/20 08:07:17;;;;;;;11.48;6.88;;;;;;;;;;5052708;28;20052;-73
2023/01/20 08:10:22;;;;;;;12.68;6.68;;;;;;;;;;5053136;28;20052;-69
2023/01/20 08:13:26;;;;;;;15.15;6.50;;;;;;;;;;5052135;28;20056;-70
2023/01/20 08:16:31;;;;;;;10.68;5.75;;;;;;;;;;5053594;28;20514;-69
2023/01/20 08:19:36;;;;;;;8.27;4.60;;;;;;;;;;5053727;28;20052;-73
2023/01/20 08:22:40;;;;;;;9.50;3.78;;;;;;;;;;5053105;28;20032;-68
2023/01/20 08:25:45;;;;;;;6.38;4.30;;;;;;;;;;5052981;28;20037;-67
2023/01/20 08:28:49;;;;;;;8.95;4.00;;;;;;;;;;5053126;28;20041;-69
2023/01/20 08:31:53;;;;;;;10.13;4.47;;;;;;;;;;5052785;28;20041;-69
2023/01/20 08:34:57;;;;;;;7.50;3.85;;;;;;;;;;5052706;28;20060;-70
2023/01/20 08:38:02;;;;;;;9.60;5.18;;;;;;;;;;5052790;28;20488;-67
2023/01/20 08:41:08;;;;;;;14.65;4.68;;;7.00;99.90;;;;;;5052874;28;20373;-68
2023/01/20 08:44:13;;;;;;;11.50;3.80;;;;;;;;;;5052389;28;20503;-68
2023/01/20 08:47:17;;;;;;;7.75;3.88;;;7.30;99.90;;;;;;5052678;28;20515;-71
2023/01/20 08:50:23;;;;;;;13.35;4.30;;;;;;;;;;5052697;28;20036;-72
2023/01/20 08:53:27;;;;;;;10.05;3.35;;;5.80;99.90;;;;;;5052082;28;20102;-71
2023/01/20 08:56:32;;;;;;;10.50;4.70;;;7.10;99.90;;;;;;5051163;28;20400;-68
2023/01/20 08:59:37;;;;;;;9.77;4.72;;;;;;;;;;5050921;28;20048;-73
2023/01/20 09:02:41;;;;;;;12.48;5.05;;;;;;;;;;5051823;28;20041;-74
2023/01/20 09:05:46;;;;;;;11.85;6.82;;;;;;;;;;5051097;28;20063;-68
2023/01/20 09:08:50;;;;;;;13.35;7.32;;;7.40;99.90;;;;;;5051710;28;20060;-75
2023/01/20 09:11:54;;;;;;;16.92;8.15;;;;;;;;;;5051974;28;20036;-71
2023/01/20 09:15:00;;;;;;;16.52;8.23;;;;;;;;;;5051636;28;20520;-69
2023/01/20 09:18:04;;;;;;;10.65;7.22;;;;;;;;;;5051853;28;20126;-69
2023/01/20 09:21:08;;;;;;;22.33;6.53;;;;;;;;;;5050766;28;20044;-69
2023/01/20 09:24:13;;;;;;;15.52;6.32;;;;;;;;;;5051583;28;20079;-67
2023/01/20 09:27:17;;;;;;;10.55;5.90;;;8.50;99.90;;;;;;5051859;28;20515;-73
2023/01/20 09:30:21;;;;;;;13.13;6.43;;;;;;;;;;5051444;28;20393;-68
2023/01/20 09:33:25;;;;;;;13.82;6.95;;;;;;;;;;5051602;28;20052;-68
2023/01/20 09:36:29;;;;;;;14.90;7.35;;;9.00;99.90;;;;;;5051370;28;20052;-68
2023/01/20 09:46:35;;;;;;;21.85;10.13;;;;;;;;;;5051162;28;20045;-68
2023/01/20 09:53:26;;;;;;;30.75;12.38;;;;;;;;;;5050885;28;20076;-70
2023/01/20 09:56:34;;;;;;;26.10;13.35;;;;;;;;;;5051245;28;20040;-69
2023/01/20 10:00:06;;;;;;;22.17;12.57;;;8.30;99.90;;;;;;5051014;28;20052;-71
2023/01/20 10:03:20;;;;;;;20.92;10.77;;;5.40;99.90;;;;;;5051160;28;20039;-71
2023/01/20 10:06:33;;;;;;;20.65;10.63;;;9.20;99.90;;;;;;5050860;28;20511;-67
2023/01/20 10:09:49;;;;;;;21.52;11.88;;;7.90;99.90;;;;;;5050915;28;20052;-69
2023/01/20 10:13:13;;;;;;;21.67;10.70;;;7.40;99.90;;;;;;5050726;28;20496;-72
2023/01/20 10:16:32;;;;;;;15.52;8.40;;;8.00;99.90;;;;;;5050927;28;20044;-77
2023/01/20 10:20:19;;;;;;;13.15;7.15;;;8.40;99.90;;;;;;5050020;28;20222;-77
2023/01/20 10:23:41;;;;;;;14.32;6.78;;;8.50;99.90;;;;;;5028137;28;20068;-77
2023/01/20 10:27:06;;;;;;;21.33;10.13;;;8.50;99.90;;;;;;5018838;28;20048;-76
2023/01/20 10:30:12;;;;;;;22.65;9.13;;;8.60;99.90;;;;;;5050558;28;20048;-77
2023/01/20 10:33:30;;;;;;;25.65;12.48;;;8.50;99.90;;;;;;5050558;28;20048;-77
2023/01/20 10:36:34;;;;;;;21.20;9.20;;;7.80;99.90;;;;;;5050605;28;20055;-76
2023/01/20 10:39:52;;;;;;;25.55;9.55;;;8.70;99.90;;;;;;5051076;28;20437;-76
2023/01/20 10:42:58;;;;;;;17.60;8.80;;;8.00;99.90;;;;;;5050661;28;20052;-76
2023/01/20 10:46:23;;;;;;;17.33;8.88;;;7.80;99.90;;;;;;5050451;28;20040;-76
2023/01/20 10:49:51;;;;;;;16.45;9.25;;;9.40;99.90;;;;;;5050491;28;20600;-76
2023/01/20 10:52:58;;;;;;;15.55;8.77;;;9.20;99.90;;;;;;5050293;28;20044;-76
2023/01/20 10:56:16;;;;;;;20.42;8.95;;;9.20;99.90;;;;;;5050340;28;20056;-76
2023/01/20 10:59:31;;;;;;;7.93;3.97;;;8.90;99.90;;;;;;5050109;28;20048;-76
2023/01/20 11:02:36;;;;;;;10.35;4.05;;;;;;;;;;5050200;28;20048;-76
2023/01/20 11:05:41;;;;;;;8.48;3.40;;;8.80;99.90;;;;;;5050722;28;20040;-77
2023/01/20 11:08:46;;;;;;;6.13;2.78;;;8.40;99.90;;;;;;5050390;28;20033;-72
2023/01/20 11:11:51;;;;;;;7.53;2.70;;;8.40;99.90;;;;;;5050052;28;20041;-73
2023/01/20 11:14:58;;;;;;;6.82;2.63;;;8.00;99.90;;;;;;5050300;28;20508;-72
2023/01/20 11:18:14;;;;;;;6.32;3.35;;;8.50;99.90;;;;;;5050564;28;20361;-72
2023/01/20 11:21:26;;;;;;;7.40;2.90;;;7.50;99.90;;;;;;5050111;28;20620;-73
2023/01/20 11:24:42;;;;;;;7.90;2.72;;;9.40;99.90;;;;;;5050232;28;20045;-74
2023/01/20 11:27:47;;;;;;;2.95;1.90;;;;;;;;;;5050533;28;20385;-72
2023/01/20 11:30:53;;;;;;;7.72;2.03;;;;;;;;;;5050178;28;20029;-74
2023/01/20 11:34:00;;;;;;;2.08;1.58;;;9.00;99.90;;;;;;5049931;28;20053;-74
2023/01/20 11:37:04;;;;;;;6.80;2.80;;;8.60;99.90;;;;;;5049676;28;20055;-70
2023/01/20 11:40:26;;;;;;;7.10;2.65;;;8.70;99.90;;;;;;5050331;28;20041;-70
2023/01/20 11:43:36;;;;;;;7.57;4.03;;;8.30;99.90;;;;;;5051087;28;20394;-73
2023/01/20 11:46:40;;;;;;;10.73;4.65;;;7.50;99.90;;;;;;5053855;28;20045;-68
2023/01/20 11:49:44;;;;;;;10.63;3.55;;;;;;;;;;5054266;28;20495;-73
2023/01/20 11:52:48;;;;;;;5.90;3.20;;;8.20;99.90;;;;;;5053686;28;20036;-76
2023/01/20 11:56:00;;;;;;;9.52;3.45;;;7.50;99.90;;;;;;5053485;28;20052;-70
2023/01/20 11:59:21;;;;;;;9.85;4.30;;;8.40;99.90;;;;;;5053474;28;20369;-75
2023/01/20 12:02:27;;;;;;;13.43;4.90;;;8.50;99.90;;;;;;5053003;28;20428;-73
2023/01/20 12:06:01;;;;;;;10.80;5.25;;;8.70;99.90;;;;;;5052136;28;20052;-73
2023/01/20 12:09:11;;;;;;;10.68;6.32;;;9.40;99.90;;;;;;5051702;28;20056;-72
2023/01/20 12:12:36;;;;;;;17.50;6.85;;;8.30;99.90;;;;;;5051932;28;20048;-73
2023/01/20 12:15:53;;;;;;;16.48;9.82;;;8.40;99.90;;;;;;5052337;28;20507;-73
2023/01/20 12:19:03;;;;;;;22.42;11.48;;;8.10;99.90;;;;;;5052811;28;20207;-72
2023/01/20 12:22:22;;;;;;;15.20;10.05;;;9.20;99.90;;;;;;5052970;28;20036;-72
2023/01/20 12:25:34;;;;;;;16.33;10.63;;;8.50;99.90;;;;;;5053084;28;20404;-73
2023/01/20 12:29:01;;;;;;;22.75;11.43;;;8.40;99.90;;;;;;5052790;28;20048;-73
2023/01/20 12:32:07;;;;;;;24.33;11.07;;;8.40;99.90;;;;;;5051844;28;20044;-72
2023/01/20 12:35:14;;;;;;;21.10;10.93;;;8.40;99.90;;;;;;5052616;28;20262;-72
2023/01/20 12:38:21;;;;;;;20.48;10.05;;;8.70;99.90;;;;;;5052632;28;20039;-73
2023/01/20 12:41:36;;;;;;;16.38;8.30;;;8.40;99.90;;;;;;5052942;28;20155;-72
2023/01/20 12:45:11;;;;;;;11.65;7.40;;;8.70;99.90;;;;;;5052420;28;20425;-72
2023/01/20 12:48:37;;;;;;;15.07;8.40;;;8.20;99.90;;;;;;5052821;28;20391;-72
2023/01/20 12:51:56;;;;;;;15.63;8.20;;;9.30;99.90;;;;;;5052309;28;20048;-72
2023/01/20 12:55:22;;;;;;;15.82;8.73;;;8.30;99.90;;;;;;5052049;28;20455;-72
2023/01/20 12:59:03;;;;;;;14.35;6.03;;;9.00;99.90;;;;;;5052425;28;20040;-73
2023/01/20 13:02:36;;;;;;;13.07;5.47;;;8.70;99.90;;;;;;5052311;28;20044;-73
2023/01/20 13:06:00;;;;;;;12.57;3.75;;;8.20;99.90;;;;;;5052074;28;20388;-72
2023/01/20 13:09:21;;;;;;;8.55;3.10;;;8.30;99.90;;;;;;5052076;28;20068;-73
2023/01/20 13:12:31;;;;;;;8.13;3.17;;;7.70;99.90;;;;;;5052084;28;20048;-73
2023/01/20 13:15:46;;;;;;;7.20;3.40;;;6.80;99.90;;;;;;5051916;28;20049;-72
2023/01/20 13:19:11;;;;;;;8.48;3.15;;;8.60;99.90;;;;;;5051908;28;20041;-73
2023/01/20 13:22:19;;;;;;;8.40;4.20;;;11.60;99.90;;;;;;5051678;28;20046;-73
2023/01/20 13:25:24;;;;;;;10.25;4.63;;;8.00;99.90;;;;;;5051634;28;20036;-71
2023/01/20 13:28:29;;;;;;;6.78;2.80;;;;;;;;;;5051688;28;20044;-71
2023/01/20 13:31:36;;;;;;;6.15;2.70;;;8.10;99.90;;;;;;5051610;28;20029;-75
2023/01/20 13:34:41;;;;;;;4.50;2.95;;;;;;;;;;5051645;28;20037;-73
2023/01/20 13:37:57;;;;;;;5.97;2.40;;;7.90;99.90;;;;;;5051773;28;20060;-74
2023/01/20 13:41:04;;;;;;;3.10;1.80;;;8.70;99.90;;;;;;5051582;28;20048;-76
2023/01/20 13:44:44;;;;;;;7.15;3.35;;;;;;;;;;5050353;28;20046;-71
2023/01/20 13:48:22;;;;;;;6.35;4.00;;;9.20;99.90;;;;;;5029928;28;20034;-70
2023/01/20 13:51:26;;;;;;;14.63;6.13;;;7.30;99.90;;;;;;5051522;28;20053;-69
2023/01/20 13:54:36;;;;;;;14.45;6.10;;;7.40;99.90;;;;;;5051534;28;20052;-72
2023/01/20 13:57:40;;;;;;;10.07;6.63;;;8.70;99.90;;;;;;5051524;28;20040;-70
2023/01/20 14:00:44;;;;;;;9.20;5.15;;;;;;;;;;5051227;28;20043;-71
2023/01/20 14:04:06;;;;;;;8.93;4.28;;;8.10;99.90;;;;;;5051468;28;20374;-75
2023/01/20 14:07:24;;;;;;;9.20;4.93;;;;;;;;;;5050676;28;20044;-71
2023/01/20 14:10:28;;;;;;;7.70;3.65;;;;;;;;;;5049956;28;20045;-73
2023/01/20 14:13:32;;;;;;;9.32;4.28;;;;;;;;;;5050940;28;20177;-72
2023/01/20 14:16:42;;;;;;;8.07;3.45;;;;;;;;;;5050750;28;20041;-72
2023/01/20 14:19:48;;;;;;;9.57;4.43;;;7.70;99.90;;;;;;5050859;28;20040;-72
2023/01/20 14:22:52;;;;;;;8.77;4.63;;;;;;;;;;5051072;28;20041;-73
2023/01/20 14:26:06;;;;;;;10.88;5.00;;;8.40;99.90;;;;;;5051063;28;20029;-72
2023/01/20 14:29:18;;;;;;;5.85;3.85;;;;;;;;;;5051114;28;20044;-72
2023/01/20 14:32:41;;;;;;;7.03;5.25;;;9.40;99.90;;;;;;5050649;28;20049;-72
2023/01/20 14:35:45;;;;;;;8.18;5.80;;;;;;;;;;5050636;28;20059;-73
2023/01/20 14:38:55;;;;;;;8.27;3.78;;;8.00;99.90;;;;;;5050548;28;20033;-72
2023/01/20 14:42:00;;;;;;;5.80;3.20;;;;;;;;;;5050492;28;20060;-71
2023/01/20 14:45:24;;;;;;;4.57;3.40;;;7.50;99.90;;;;;;5050794;28;20040;-71
2023/01/20 14:48:29;;;;;;;5.93;2.00;;;;;;;;;;5050068;28;20057;-72
2023/01/20 14:51:33;;;;;;;7.60;3.38;;;7.50;99.90;;;;;;5050353;28;20037;-70
2023/01/20 14:54:43;;;;;;;3.50;2.05;;;7.10;99.90;;;;;;5050401;28;20057;-71
2023/01/20 14:57:48;;;;;;;6.05;2.80;;;;;;;;;;5050674;28;20037;-71
2023/01/20 15:00:54;;;;;;;3.65;2.45;;;7.80;99.90;;;;;;5050816;28;20037;-70
2023/01/20 15:04:04;;;;;;;4.88;3.20;;;7.30;99.90;;;;;;5050369;28;20037;-70
2023/01/20 15:07:18;;;;;;;5.22;3.60;;;;;;;;;;5050556;28;20520;-73
2023/01/20 15:10:24;;;;;;;5.78;3.10;;;;;;;;;;5048613;28;20044;-72
2023/01/20 15:13:30;;;;;;;3.85;2.55;;;;;;;;;;5048918;28;20045;-71
2023/01/20 15:16:42;;;;;;;5.93;2.88;;;7.40;99.90;;;;;;5048345;28;20045;-71
2023/01/20 15:19:47;;;;;;;5.50;2.88;;;;;;;;;;5052729;28;20393;-71
2023/01/20 15:22:51;;;;;;;8.65;5.38;;;;;;;;;;5052478;28;20037;-71
2023/01/20 15:25:56;;;;;;;5.93;2.88;;;;;;;;;;5054336;28;20036;-72
2023/01/20 15:29:00;;;;;;;5.70;2.42;;;;;;;;;;5054155;28;20477;-71
2023/01/20 15:32:11;;;;;;;6.90;4.10;;;7.10;99.90;;;;;;5053755;28;20032;-74
2023/01/20 15:35:18;;;;;;;4.60;3.00;;;;;;;;;;5053973;28;20048;-75
2023/01/20 15:38:22;;;;;;;5.93;4.05;;;;;;;;;;5054180;28;20033;-75
2023/01/20 15:41:26;;;;;;;4.50;3.10;;;;;;;;;;5053914;28;20041;-79
2023/01/20 15:44:31;;;;;;;6.30;3.92;;;;;;;;;;5054124;28;20366;-70
2023/01/20 15:47:35;;;;;;;6.25;3.38;;;;;;;;;;5053817;28;20025;-69
2023/01/20 15:50:41;;;;;;;4.20;2.70;;;;;;;;;;5053243;28;20045;-69
2023/01/20 15:53:45;;;;;;;3.80;2.20;;;;;;;;;;5054568;28;20040;-69
2023/01/20 15:56:49;;;;;;;3.70;2.50;;;;;;;;;;5053671;28;20284;-69
2023/01/20 15:59:54;;;;;;;3.33;2.60;;;;;;;;;;5053447;28;20044;-68
2023/01/20 16:02:58;;;;;;;5.68;4.03;;;;;;;;;;5053250;28;20033;-69
2023/01/20 16:06:02;;;;;;;7.85;3.15;;;6.80;99.90;;;;;;5053172;28;20037;-68
2023/01/20 16:09:18;;;;;;;3.55;2.47;;;7.90;99.90;;;;;;5053002;28;20048;-69
2023/01/20 16:12:22;;;;;;;3.42;2.08;;;;;;;;;;5053037;28;20495;-69
2023/01/20 16:15:27;;;;;;;3.13;2.00;;;;;;;;;;5053000;28;20049;-69
2023/01/20 16:18:30;;;;;;;4.07;2.53;;;;;;;;;;5053136;28;20033;-68
2023/01/20 16:21:35;;;;;;;7.95;3.45;;;;;;;;;;5052940;28;20057;-69
2023/01/20 16:24:40;;;;;;;3.45;2.00;;;;;;;;;;5053112;28;20040;-69
2023/01/20 16:27:44;;;;;;;2.20;1.50;;;;;;;;;;5052875;28;20398;-69
2023/01/20 16:30:48;;;;;;;3.03;1.70;;;;;;;;;;5052511;28;20037;-69
2023/01/20 16:33:53;;;;;;;2.67;1.70;;;7.10;99.90;;;;;;5052638;28;20488;-69
2023/01/20 16:37:00;;;;;;;2.90;1.88;;;7.30;99.90;;;;;;5052685;28;20045;-70
2023/01/20 16:40:05;;;;;;;8.40;5.03;;;6.50;99.90;;;;;;5052913;28;20041;-69
2023/01/20 16:43:09;;;;;;;8.80;5.07;;;5.80;99.90;;;;;;5052397;28;20052;-69
2023/01/20 16:46:18;;;;;;;5.78;3.70;;;;;;;;;;5052728;28;20044;-69
2023/01/20 16:49:22;;;;;;;7.97;5.25;;;6.30;99.90;;;;;;5052714;28;20033;-69
2023/01/20 16:52:26;;;;;;;7.47;3.40;;;;;;;;;;5052248;28;20041;-69
2023/01/20 16:55:30;;;;;;;8.40;5.90;;;;;;;;;;5052016;28;20135;-70
2023/01/20 16:58:35;;;;;;;5.40;3.40;;;;;;;;;;5052111;28;20029;-70
2023/01/20 17:01:39;;;;;;;5.47;3.45;;;;;;;;;;5051935;28;20045;-70
2023/01/20 17:04:44;;;;;;;6.93;3.97;;;;;;;;;;5051546;28;20048;-69
2023/01/20 17:07:49;;;;;;;10.85;6.28;;;;;;;;;;5052043;28;20132;-68
2023/01/20 17:10:53;;;;;;;6.63;4.05;;;;;;;;;;5050669;28;20056;-73
2023/01/20 17:13:58;;;;;;;6.28;3.47;;;;;;;;;;5051190;28;20484;-72
2023/01/20 17:17:02;;;;;;;7.50;4.25;;;;;;;;;;5051744;28;20362;-71
2023/01/20 17:20:10;;;;;;;4.07;3.13;;;;;;;;;;5050842;28;20473;-68
2023/01/20 17:23:14;;;;;;;5.30;3.97;;;;;;;;;;5050484;28;20056;-69
2023/01/20 17:26:19;;;;;;;10.45;5.38;;;;;;;;;;5051138;28;20045;-71
2023/01/20 17:29:23;;;;;;;16.35;9.27;;;;;;;;;;5050259;28;20044;-71
2023/01/20 17:32:27;;;;;;;11.75;7.38;;;;;;;;;;5048259;28;20491;-71
2023/01/20 17:35:57;;;;;;;27.05;14.80;;;;;;;;;;5049308;28;20322;-71
2023/01/20 17:39:05;;;;;;;11.10;7.22;;;;;;;;;;5049641;28;20067;-71
2023/01/20 17:42:08;;;;;;;13.50;7.22;;;;;;;;;;5049009;28;20507;-71
2023/01/20 17:45:13;;;;;;;11.15;6.40;;;;;;;;;;5049821;28;20052;-71
2023/01/20 17:48:18;;;;;;;9.02;4.88;;;;;;;;;;5050664;28;20055;-72
2023/01/20 17:51:27;;;;;;;15.20;7.10;;;;;;;;;;5051460;28;20037;-71
2023/01/20 17:54:31;;;;;;;10.73;5.97;;;;;;;;;;5051215;28;20044;-71
2023/01/20 17:57:35;;;;;;;7.80;5.22;;;;;;;;;;5050878;28;20039;-71
2023/01/20 18:00:39;;;;;;;5.18;3.45;;;;;;;;;;5051131;28;20577;-72